createdAt,value
2023-05-03T00:00:00.937Z,7.6
2023-05-03T00:04:00.451Z,7.5
2023-05-03T00:08:00.427Z,7.4
2023-05-03T00:12:00.452Z,7.4
2023-05-03T00:16:00.449Z,7.3
2023-05-03T00:20:00.733Z,7.2
2023-05-03T00:24:00.446Z,7.2
2023-05-03T00:28:00.431Z,7.2
2023-05-03T00:32:00.529Z,7.2
2023-05-03T00:36:00.433Z,7.1
2023-05-03T00:40:00.679Z,7.0
2023-05-03T00:44:00.466Z,6.8
2023-05-03T00:48:00.537Z,6.8
2023-05-03T00:52:00.455Z,6.6
2023-05-03T00:56:00.497Z,6.3
2023-05-03T01:00:01.020Z,6.1
2023-05-03T01:04:00.732Z,6.0
2023-05-03T01:08:00.505Z,5.8
2023-05-03T01:12:00.502Z,5.7
2023-05-03T01:16:00.529Z,5.7
2023-05-03T01:20:00.935Z,5.6
2023-05-03T01:24:00.518Z,5.5
2023-05-03T01:28:00.464Z,5.2
2023-05-03T01:32:00.562Z,5.0
2023-05-03T01:36:00.467Z,4.9
2023-05-03T01:40:00.924Z,4.8
2023-05-03T01:44:00.467Z,4.6
2023-05-03T01:48:00.533Z,4.4
2023-05-03T01:52:00.449Z,4.3
2023-05-03T01:56:00.483Z,4.4
2023-05-03T02:00:00.523Z,4.2
2023-05-03T02:04:00.546Z,4.2
2023-05-03T02:08:00.476Z,4.2
2023-05-03T02:12:00.462Z,4.1
2023-05-03T02:16:00.430Z,4.1
2023-05-03T02:20:00.644Z,3.9
2023-05-03T02:24:00.437Z,4.0
2023-05-03T02:28:00.473Z,4.0
2023-05-03T02:32:00.428Z,4.0
2023-05-03T02:36:00.440Z,3.9
2023-05-03T02:40:00.641Z,3.9
2023-05-03T02:44:00.441Z,3.8
2023-05-03T02:48:00.455Z,3.9
2023-05-03T02:52:00.432Z,3.9
2023-05-03T02:56:00.435Z,3.7
2023-05-03T03:00:00.737Z,3.7
2023-05-03T03:04:00.550Z,3.5
2023-05-03T03:08:00.435Z,3.4
2023-05-03T03:12:00.436Z,3.3
2023-05-03T03:16:00.474Z,3.3
2023-05-03T03:20:00.837Z,3.4
2023-05-03T03:24:00.451Z,3.3
2023-05-03T03:28:00.428Z,3.3
2023-05-03T03:32:00.517Z,3.3
2023-05-03T03:36:00.450Z,3.3
2023-05-03T03:40:00.550Z,3.3
2023-05-03T03:44:00.449Z,3.2
2023-05-03T03:48:00.453Z,3.3
2023-05-03T03:52:00.434Z,3.2
2023-05-03T03:56:00.462Z,3.2
2023-05-03T04:00:00.629Z,3.2
2023-05-03T04:04:00.557Z,3.4
2023-05-03T04:08:00.443Z,3.4
2023-05-03T04:12:00.463Z,3.5
2023-05-03T04:16:01.405Z,3.6
2023-05-03T04:20:01.007Z,3.5
2023-05-03T04:24:00.479Z,3.6
2023-05-03T04:28:00.432Z,3.6
2023-05-03T04:32:00.464Z,3.8
2023-05-03T04:36:00.442Z,4.0
2023-05-03T04:40:00.639Z,4.2
2023-05-03T04:44:00.457Z,4.5
2023-05-03T04:48:00.481Z,4.7
2023-05-03T04:52:00.438Z,5.1
2023-05-03T04:56:00.470Z,5.4
2023-05-03T05:00:00.543Z,5.6
2023-05-03T05:04:00.690Z,5.7
2023-05-03T05:08:00.441Z,6.2
2023-05-03T05:12:00.452Z,6.4
2023-05-03T05:16:00.454Z,6.7
2023-05-03T05:20:00.863Z,7.1
2023-05-03T05:24:00.451Z,7.3
2023-05-03T05:28:00.428Z,7.4
2023-05-03T05:32:00.546Z,7.7
2023-05-03T05:36:00.424Z,7.7
2023-05-03T05:40:00.644Z,7.6
2023-05-03T05:44:00.460Z,7.4
2023-05-03T05:48:00.510Z,7.4
2023-05-03T05:52:00.476Z,7.4
2023-05-03T05:56:00.447Z,7.6
2023-05-03T06:00:00.819Z,7.7
2023-05-03T06:04:00.446Z,8.2
2023-05-03T06:08:00.458Z,9.1
2023-05-03T06:12:00.473Z,9.5
2023-05-03T06:16:00.470Z,9.9
2023-05-03T06:20:00.483Z,10.3
2023-05-03T06:24:00.456Z,10.6
2023-05-03T06:28:00.443Z,10.4
2023-05-03T06:32:00.435Z,10.8
2023-05-03T06:36:00.697Z,11.0
2023-05-03T06:40:00.568Z,11.2
2023-05-03T06:44:00.460Z,11.3
2023-05-03T06:48:00.563Z,11.8
2023-05-03T06:52:00.469Z,12.2
2023-05-03T06:56:00.422Z,12.5
2023-05-03T07:00:00.712Z,12.6
2023-05-03T07:04:00.571Z,12.9
2023-05-03T07:08:00.453Z,13.1
2023-05-03T07:12:00.443Z,13.2
2023-05-03T07:16:03.429Z,13.2
2023-05-03T07:20:00.536Z,12.8
2023-05-03T07:24:00.438Z,13.0
2023-05-03T07:28:00.472Z,12.6
2023-05-03T07:32:00.453Z,13.7
2023-05-03T07:36:00.460Z,13.6
2023-05-03T07:40:00.681Z,14.1
2023-05-03T07:44:00.460Z,13.6
2023-05-03T07:48:00.455Z,13.8
2023-05-03T07:52:00.467Z,14.4
2023-05-03T07:56:00.465Z,13.8
2023-05-03T08:00:00.589Z,14.8
2023-05-03T08:04:00.601Z,14.2
2023-05-03T08:08:00.443Z,15.1
2023-05-03T08:12:00.451Z,14.6
2023-05-03T08:16:00.505Z,15.0
2023-05-03T08:20:00.465Z,15.7
2023-05-03T08:24:00.466Z,15.3
2023-05-03T08:28:00.471Z,16.0
2023-05-03T08:32:00.523Z,16.0
2023-05-03T08:36:00.460Z,14.8
2023-05-03T08:40:00.459Z,15.1
2023-05-03T08:44:00.491Z,15.9
2023-05-03T08:48:00.489Z,16.3
2023-05-03T08:52:00.471Z,15.9
2023-05-03T08:56:00.466Z,15.9
2023-05-03T09:00:00.567Z,16.6
2023-05-03T09:04:00.543Z,16.1
2023-05-03T09:08:00.427Z,16.0
2023-05-03T09:12:00.457Z,16.4
2023-05-03T09:16:00.456Z,15.0
2023-05-03T09:20:00.459Z,16.7
2023-05-03T09:24:00.452Z,16.2
2023-05-03T09:28:00.440Z,13.7
2023-05-03T09:32:00.511Z,15.9
2023-05-03T09:36:00.450Z,16.9
2023-05-03T09:40:00.627Z,16.4
2023-05-03T09:44:00.457Z,18.0
2023-05-03T09:48:00.540Z,17.0
2023-05-03T09:52:00.443Z,17.3
2023-05-03T09:56:00.461Z,17.9
2023-05-03T10:00:00.451Z,17.3
2023-05-03T10:04:00.458Z,17.3
2023-05-03T10:08:00.459Z,17.8
2023-05-03T10:12:00.454Z,17.7
2023-05-03T10:16:00.586Z,17.6
2023-05-03T10:20:00.445Z,18.0
2023-05-03T10:24:00.431Z,17.9
2023-05-03T10:28:00.447Z,18.3
2023-05-03T10:32:00.437Z,17.6
2023-05-03T10:36:00.464Z,18.1
2023-05-03T10:40:00.423Z,17.5
2023-05-03T10:44:00.441Z,17.9
2023-05-03T10:48:00.455Z,17.4
2023-05-03T10:52:00.427Z,18.0
2023-05-03T10:56:00.446Z,19.1
2023-05-03T11:00:00.429Z,17.8
2023-05-03T11:04:00.466Z,18.4
2023-05-03T11:08:00.450Z,18.4
2023-05-03T11:12:00.415Z,17.9
2023-05-03T11:16:00.573Z,18.2
2023-05-03T11:20:00.428Z,18.2
2023-05-03T11:24:00.425Z,19.2
2023-05-03T11:28:00.420Z,18.0
2023-05-03T11:32:00.437Z,18.1
2023-05-03T11:36:00.442Z,17.8
2023-05-03T11:40:00.432Z,18.7
2023-05-03T11:44:14.917Z,19.0
2023-05-03T11:48:00.454Z,17.6
2023-05-03T11:52:00.694Z,18.7
2023-05-03T11:56:00.457Z,19.5
2023-05-03T12:00:00.422Z,18.6
2023-05-03T12:04:00.804Z,19.4
2023-05-03T12:08:01.696Z,18.8
2023-05-03T12:12:02.416Z,18.6
2023-05-03T12:20:25.586Z,19.3
2023-05-03T12:24:01.512Z,19.9
2023-05-03T12:32:00.542Z,19.3
2023-05-03T12:36:04.017Z,18.9
2023-05-03T12:40:30.367Z,19.3
2023-05-03T12:44:00.686Z,19.2
2023-05-03T12:48:00.576Z,19.8
2023-05-03T12:52:11.410Z,19.8
2023-05-03T12:56:00.634Z,18.8
2023-05-03T13:00:03.436Z,20.0
2023-05-03T13:08:07.586Z,18.3
2023-05-03T13:12:00.552Z,19.6
2023-05-03T13:16:00.529Z,18.7
2023-05-03T13:20:00.442Z,20.1
2023-05-03T13:24:00.449Z,19.8
2023-05-03T13:28:00.453Z,20.6
2023-05-03T13:32:00.504Z,20.3
2023-05-03T13:36:00.448Z,20.1
2023-05-03T13:40:00.468Z,19.7
2023-05-03T13:44:00.460Z,19.9
2023-05-03T13:48:18.085Z,19.9
2023-05-03T13:52:00.465Z,20.5
2023-05-03T13:56:00.445Z,19.5
2023-05-03T14:00:00.451Z,19.4
2023-05-03T14:04:00.537Z,20.0
2023-05-03T14:08:00.455Z,20.0
2023-05-03T14:12:00.430Z,19.7
2023-05-03T14:16:00.493Z,20.2
2023-05-03T14:20:00.443Z,20.5
2023-05-03T14:24:00.454Z,20.1
2023-05-03T14:28:00.450Z,20.1
2023-05-03T14:32:00.448Z,20.6
2023-05-03T14:36:00.427Z,20.8
2023-05-03T14:40:00.430Z,19.7
2023-05-03T14:44:00.449Z,19.9
2023-05-03T14:48:00.476Z,20.4
2023-05-03T14:52:00.447Z,19.8
2023-05-03T14:56:00.434Z,19.0
2023-05-03T15:00:00.456Z,19.8
2023-05-03T15:04:00.438Z,19.7
2023-05-03T15:08:00.473Z,19.5
2023-05-03T15:12:00.449Z,20.5
2023-05-03T15:16:00.467Z,19.9
2023-05-03T15:20:00.432Z,18.6
2023-05-03T15:24:00.439Z,19.5
2023-05-03T15:28:03.696Z,19.0
2023-05-03T15:32:00.459Z,18.1
2023-05-03T15:36:00.446Z,18.7
2023-05-03T15:40:00.486Z,18.6
2023-05-03T15:44:00.428Z,18.3
2023-05-03T15:48:00.518Z,18.2
2023-05-03T15:52:00.449Z,18.2
2023-05-03T15:56:00.444Z,17.8
2023-05-03T16:00:00.457Z,17.6
2023-05-03T16:04:00.436Z,17.9
2023-05-03T16:08:00.432Z,17.2
2023-05-03T16:12:00.473Z,17.4
2023-05-03T16:16:00.475Z,17.6
2023-05-03T16:20:00.537Z,17.3
2023-05-03T16:24:00.441Z,17.0
2023-05-03T16:28:00.448Z,17.1
2023-05-03T16:32:00.549Z,17.0
2023-05-03T16:36:00.449Z,17.3
2023-05-03T16:40:00.437Z,16.9
2023-05-03T16:44:00.461Z,15.7
2023-05-03T16:48:03.641Z,15.5
2023-05-03T16:52:00.462Z,15.7
2023-05-03T16:56:00.437Z,16.2
2023-05-03T17:00:02.512Z,16.2
2023-05-03T17:04:00.482Z,16.1
2023-05-03T17:08:00.456Z,15.9
2023-05-03T17:12:01.621Z,15.1
2023-05-03T17:16:00.445Z,14.4
2023-05-03T17:20:00.457Z,13.9
2023-05-03T17:24:00.466Z,13.7
2023-05-03T17:28:00.438Z,13.4
2023-05-03T17:32:00.491Z,13.2
2023-05-03T17:36:00.482Z,13.0
2023-05-03T17:40:00.496Z,13.0
2023-05-03T17:44:00.465Z,12.6
2023-05-03T17:48:00.510Z,12.7
2023-05-03T17:52:00.467Z,12.2
2023-05-03T17:56:00.443Z,12.0
2023-05-03T18:00:00.459Z,11.8
2023-05-03T18:04:00.520Z,11.5
2023-05-03T18:08:00.445Z,11.3
2023-05-03T18:12:00.441Z,11.1
2023-05-03T18:16:00.503Z,10.7
2023-05-03T18:20:00.454Z,10.6
2023-05-03T18:24:00.470Z,10.4
2023-05-03T18:28:00.450Z,10.2
2023-05-03T18:32:00.464Z,10.0
2023-05-03T18:36:00.464Z,9.9
2023-05-03T18:40:00.441Z,9.7
2023-05-03T18:44:00.457Z,9.5
2023-05-03T18:48:00.445Z,9.4
2023-05-03T18:52:00.457Z,9.3
2023-05-03T18:56:00.442Z,9.2
2023-05-03T19:00:01.650Z,9.1
2023-05-03T19:04:00.466Z,9.0
2023-05-03T19:08:00.449Z,8.9
2023-05-03T19:12:00.438Z,8.7
2023-05-03T19:16:00.455Z,8.6
2023-05-03T19:20:00.456Z,8.6
2023-05-03T19:24:00.448Z,8.5
2023-05-03T19:28:00.448Z,8.3
2023-05-03T19:32:00.453Z,8.3
2023-05-03T19:36:00.453Z,8.3
2023-05-03T19:40:00.467Z,8.3
2023-05-03T19:44:00.441Z,8.2
2023-05-03T19:48:00.555Z,8.1
2023-05-03T19:52:00.443Z,8.0
2023-05-03T19:56:00.450Z,7.9
2023-05-03T20:00:00.465Z,7.9
2023-05-03T20:04:00.602Z,8.1
2023-05-03T20:08:00.461Z,8.1
2023-05-03T20:12:00.472Z,8.2
2023-05-03T20:16:00.469Z,8.2
2023-05-03T20:20:00.460Z,8.0
2023-05-03T20:24:00.460Z,7.9
2023-05-03T20:28:00.493Z,8.0
2023-05-03T20:32:00.466Z,7.9
2023-05-03T20:36:00.508Z,7.8
2023-05-03T20:40:00.442Z,7.8
2023-05-03T20:44:00.459Z,7.9
2023-05-03T20:48:00.545Z,7.8
2023-05-03T20:52:00.448Z,7.7
2023-05-03T20:56:00.456Z,7.8
2023-05-03T21:00:00.468Z,7.5
2023-05-03T21:04:00.471Z,7.4
2023-05-03T21:08:00.456Z,7.5
2023-05-03T21:12:00.471Z,7.1
2023-05-03T21:16:00.443Z,6.9
2023-05-03T21:20:00.463Z,6.6
2023-05-03T21:24:00.448Z,6.3
2023-05-03T21:28:00.472Z,6.2
2023-05-03T21:32:00.666Z,6.3
2023-05-03T21:36:00.448Z,6.2
2023-05-03T21:40:02.368Z,6.1
2023-05-03T21:44:00.455Z,5.9
2023-05-03T21:48:00.438Z,5.8
2023-05-03T21:52:00.456Z,5.7
2023-05-03T21:56:00.442Z,5.7
2023-05-03T22:00:00.445Z,5.6
2023-05-03T22:04:00.645Z,5.4
2023-05-03T22:08:00.446Z,5.4
2023-05-03T22:12:05.970Z,5.4
2023-05-03T22:16:00.468Z,5.5
2023-05-03T22:20:00.465Z,5.1
2023-05-03T22:24:00.461Z,5.0
2023-05-03T22:28:00.467Z,4.8
2023-05-03T22:32:00.479Z,4.8
2023-05-03T22:36:00.451Z,4.7
2023-05-03T22:40:00.461Z,4.6
2023-05-03T22:44:00.498Z,4.6
2023-05-03T22:48:00.520Z,4.4
2023-05-03T22:52:00.443Z,4.4
2023-05-03T22:56:00.452Z,4.4
2023-05-03T23:00:00.459Z,4.3
2023-05-03T23:04:00.577Z,4.2
2023-05-03T23:08:00.452Z,4.1
2023-05-03T23:12:00.454Z,3.9
2023-05-03T23:16:00.448Z,3.7
2023-05-03T23:20:00.479Z,4.0
2023-05-03T23:24:00.494Z,3.8
2023-05-03T23:28:00.445Z,3.9
2023-05-03T23:32:00.448Z,3.8
2023-05-03T23:36:00.464Z,3.8
2023-05-03T23:40:00.456Z,3.9
2023-05-03T23:44:00.468Z,4.2
2023-05-03T23:48:00.482Z,4.0
2023-05-03T23:52:00.468Z,3.9
2023-05-03T23:56:00.460Z,3.9
